sensor_id;sensor_type;location;lat;lon;timestamp;P1;durP1;ratioP1;P2;durP2;ratioP2
75135;SDS011;63707;52.212;9.540;2023-03-20T00:01:21;55.85;;;26.42;;
75135;SDS011;63707;52.212;9.540;2023-03-20T00:03:48;53.67;;;25.95;;
75135;SDS011;63707;52.212;9.540;2023-03-20T00:06:16;52.95;;;26.67;;
75135;SDS011;63707;52.212;9.540;2023-03-20T00:08:42;54.67;;;26.88;;
75135;SDS011;63707;52.212;9.540;2023-03-20T00:11:12;61.65;;;27.63;;
75135;SDS011;63707;52.212;9.540;2023-03-20T00:13:52;62.67;;;27.40;;
75135;SDS011;63707;52.212;9.540;2023-03-20T00:16:19;58.63;;;27.45;;
75135;SDS011;63707;52.212;9.540;2023-03-20T00:18:46;62.38;;;27.98;;
75135;SDS011;63707;52.212;9.540;2023-03-20T00:21:13;58.22;;;26.55;;
75135;SDS011;63707;52.212;9.540;2023-03-20T00:23:42;60.53;;;27.17;;
75135;SDS011;63707;52.212;9.540;2023-03-20T00:26:07;60.30;;;27.65;;
75135;SDS011;63707;52.212;9.540;2023-03-20T00:28:37;60.30;;;27.10;;
75135;SDS011;63707;52.212;9.540;2023-03-20T00:31:08;62.15;;;27.10;;
75135;SDS011;63707;52.212;9.540;2023-03-20T00:33:42;66.68;;;28.42;;
75135;SDS011;63707;52.212;9.540;2023-03-20T00:36:08;61.78;;;27.05;;
75135;SDS011;63707;52.212;9.540;2023-03-20T00:38:35;62.50;;;27.38;;
75135;SDS011;63707;52.212;9.540;2023-03-20T00:41:00;64.43;;;28.00;;
75135;SDS011;63707;52.212;9.540;2023-03-20T00:43:26;62.13;;;27.08;;
75135;SDS011;63707;52.212;9.540;2023-03-20T00:45:51;66.85;;;28.05;;
75135;SDS011;63707;52.212;9.540;2023-03-20T00:48:17;64.57;;;27.05;;
75135;SDS011;63707;52.212;9.540;2023-03-20T00:50:43;62.08;;;26.95;;
75135;SDS011;63707;52.212;9.540;2023-03-20T00:53:09;62.03;;;26.67;;
75135;SDS011;63707;52.212;9.540;2023-03-20T00:55:37;66.18;;;27.60;;
75135;SDS011;63707;52.212;9.540;2023-03-20T00:58:04;72.47;;;29.40;;
75135;SDS011;63707;52.212;9.540;2023-03-20T01:00:33;69.88;;;28.63;;
75135;SDS011;63707;52.212;9.540;2023-03-20T01:03:05;62.42;;;28.20;;
75135;SDS011;63707;52.212;9.540;2023-03-20T01:05:37;68.05;;;27.65;;
75135;SDS011;63707;52.212;9.540;2023-03-20T01:08:04;69.00;;;28.58;;
75135;SDS011;63707;52.212;9.540;2023-03-20T01:10:33;71.50;;;28.83;;
75135;SDS011;63707;52.212;9.540;2023-03-20T01:13:00;71.20;;;28.88;;
75135;SDS011;63707;52.212;9.540;2023-03-20T01:15:26;69.05;;;28.70;;
75135;SDS011;63707;52.212;9.540;2023-03-20T01:17:55;66.53;;;27.75;;
75135;SDS011;63707;52.212;9.540;2023-03-20T01:20:22;65.95;;;26.17;;
75135;SDS011;63707;52.212;9.540;2023-03-20T01:22:49;60.08;;;26.25;;
75135;SDS011;63707;52.212;9.540;2023-03-20T01:25:14;63.58;;;26.38;;
75135;SDS011;63707;52.212;9.540;2023-03-20T01:27:41;63.63;;;26.75;;
75135;SDS011;63707;52.212;9.540;2023-03-20T01:30:21;71.85;;;29.40;;
75135;SDS011;63707;52.212;9.540;2023-03-20T01:32:48;72.85;;;29.13;;
75135;SDS011;63707;52.212;9.540;2023-03-20T01:35:15;71.88;;;28.08;;
75135;SDS011;63707;52.212;9.540;2023-03-20T01:37:41;77.93;;;30.30;;
75135;SDS011;63707;52.212;9.540;2023-03-20T01:40:10;68.00;;;28.48;;
75135;SDS011;63707;52.212;9.540;2023-03-20T01:42:40;69.40;;;28.67;;
75135;SDS011;63707;52.212;9.540;2023-03-20T01:45:09;73.28;;;27.80;;
75135;SDS011;63707;52.212;9.540;2023-03-20T01:47:41;73.07;;;27.45;;
75135;SDS011;63707;52.212;9.540;2023-03-20T01:50:21;72.95;;;29.65;;
75135;SDS011;63707;52.212;9.540;2023-03-20T01:52:52;63.63;;;26.45;;
75135;SDS011;63707;52.212;9.540;2023-03-20T01:55:22;68.57;;;27.42;;
75135;SDS011;63707;52.212;9.540;2023-03-20T01:57:50;66.75;;;28.23;;
75135;SDS011;63707;52.212;9.540;2023-03-20T02:00:18;66.97;;;26.83;;
75135;SDS011;63707;52.212;9.540;2023-03-20T02:02:45;69.43;;;26.48;;
75135;SDS011;63707;52.212;9.540;2023-03-20T02:05:12;65.18;;;25.40;;
75135;SDS011;63707;52.212;9.540;2023-03-20T02:07:41;62.30;;;25.52;;
75135;SDS011;63707;52.212;9.540;2023-03-20T02:10:13;58.67;;;23.75;;
75135;SDS011;63707;52.212;9.540;2023-03-20T02:12:41;56.88;;;21.98;;
75135;SDS011;63707;52.212;9.540;2023-03-20T02:15:07;52.50;;;20.92;;
75135;SDS011;63707;52.212;9.540;2023-03-20T02:17:33;55.35;;;20.65;;
75135;SDS011;63707;52.212;9.540;2023-03-20T02:20:03;56.30;;;20.38;;
75135;SDS011;63707;52.212;9.540;2023-03-20T02:22:42;54.40;;;21.35;;
75135;SDS011;63707;52.212;9.540;2023-03-20T02:28:50;57.03;;;22.27;;
75135;SDS011;63707;52.212;9.540;2023-03-20T02:40:41;59.25;;;23.05;;
75135;SDS011;63707;52.212;9.540;2023-03-20T02:43:13;56.45;;;21.27;;
75135;SDS011;63707;52.212;9.540;2023-03-20T02:45:47;60.38;;;21.73;;
75135;SDS011;63707;52.212;9.540;2023-03-20T02:48:18;58.00;;;20.50;;
75135;SDS011;63707;52.212;9.540;2023-03-20T02:50:52;54.55;;;20.48;;
75135;SDS011;63707;52.212;9.540;2023-03-20T02:53:27;56.08;;;21.27;;
75135;SDS011;63707;52.212;9.540;2023-03-20T02:56:02;60.15;;;22.45;;
75135;SDS011;63707;52.212;9.540;2023-03-20T02:58:37;61.95;;;21.00;;
75135;SDS011;63707;52.212;9.540;2023-03-20T03:01:10;62.33;;;22.00;;
75135;SDS011;63707;52.212;9.540;2023-03-20T03:03:41;56.88;;;22.33;;
75135;SDS011;63707;52.212;9.540;2023-03-20T03:06:11;63.83;;;21.83;;
75135;SDS011;63707;52.212;9.540;2023-03-20T03:08:46;63.72;;;23.13;;
75135;SDS011;63707;52.212;9.540;2023-03-20T03:11:15;62.80;;;21.55;;
75135;SDS011;63707;52.212;9.540;2023-03-20T03:13:41;67.63;;;23.00;;
75135;SDS011;63707;52.212;9.540;2023-03-20T03:16:11;68.00;;;22.88;;
75135;SDS011;63707;52.212;9.540;2023-03-20T03:18:40;58.65;;;21.30;;
75135;SDS011;63707;52.212;9.540;2023-03-20T03:21:07;66.22;;;21.95;;
75135;SDS011;63707;52.212;9.540;2023-03-20T03:23:38;67.30;;;22.35;;
75135;SDS011;63707;52.212;9.540;2023-03-20T03:26:10;70.15;;;23.70;;
75135;SDS011;63707;52.212;9.540;2023-03-20T03:28:39;65.30;;;23.25;;
75135;SDS011;63707;52.212;9.540;2023-03-20T03:31:10;59.00;;;22.83;;
75135;SDS011;63707;52.212;9.540;2023-03-20T03:33:38;64.20;;;22.10;;
75135;SDS011;63707;52.212;9.540;2023-03-20T03:36:07;57.90;;;21.88;;
75135;SDS011;63707;52.212;9.540;2023-03-20T03:38:38;68.32;;;24.70;;
75135;SDS011;63707;52.212;9.540;2023-03-20T03:41:13;63.85;;;22.23;;
75135;SDS011;63707;52.212;9.540;2023-03-20T03:43:45;63.35;;;21.98;;
75135;SDS011;63707;52.212;9.540;2023-03-20T03:46:18;63.40;;;21.45;;
75135;SDS011;63707;52.212;9.540;2023-03-20T03:48:51;69.38;;;24.77;;
75135;SDS011;63707;52.212;9.540;2023-03-20T03:51:22;65.82;;;22.83;;
75135;SDS011;63707;52.212;9.540;2023-03-20T03:53:51;68.75;;;22.88;;
75135;SDS011;63707;52.212;9.540;2023-03-20T03:56:23;67.97;;;22.25;;
75135;SDS011;63707;52.212;9.540;2023-03-20T03:58:52;70.25;;;24.88;;
75135;SDS011;63707;52.212;9.540;2023-03-20T04:01:20;66.90;;;22.95;;
75135;SDS011;63707;52.212;9.540;2023-03-20T04:03:48;59.78;;;21.95;;
75135;SDS011;63707;52.212;9.540;2023-03-20T04:06:16;65.95;;;22.92;;
75135;SDS011;63707;52.212;9.540;2023-03-20T04:08:43;65.80;;;22.60;;
75135;SDS011;63707;52.212;9.540;2023-03-20T04:11:11;67.70;;;22.48;;
75135;SDS011;63707;52.212;9.540;2023-03-20T04:13:40;69.40;;;21.83;;
75135;SDS011;63707;52.212;9.540;2023-03-20T04:16:07;61.70;;;21.90;;
75135;SDS011;63707;52.212;9.540;2023-03-20T04:18:39;64.07;;;22.02;;
75135;SDS011;63707;52.212;9.540;2023-03-20T04:21:05;69.35;;;23.35;;
75135;SDS011;63707;52.212;9.540;2023-03-20T04:23:31;71.05;;;24.58;;
75135;SDS011;63707;52.212;9.540;2023-03-20T04:25:57;73.00;;;24.25;;
75135;SDS011;63707;52.212;9.540;2023-03-20T04:28:23;77.10;;;27.13;;
75135;SDS011;63707;52.212;9.540;2023-03-20T04:30:52;79.57;;;25.35;;
75135;SDS011;63707;52.212;9.540;2023-03-20T04:33:20;78.70;;;25.60;;
75135;SDS011;63707;52.212;9.540;2023-03-20T04:35:45;71.03;;;25.65;;
75135;SDS011;63707;52.212;9.540;2023-03-20T04:38:11;86.80;;;26.98;;
75135;SDS011;63707;52.212;9.540;2023-03-20T04:40:37;80.93;;;27.27;;
75135;SDS011;63707;52.212;9.540;2023-03-20T04:43:03;77.47;;;26.55;;
75135;SDS011;63707;52.212;9.540;2023-03-20T04:45:28;72.45;;;25.52;;
75135;SDS011;63707;52.212;9.540;2023-03-20T04:47:55;81.53;;;27.63;;
75135;SDS011;63707;52.212;9.540;2023-03-20T04:50:21;72.40;;;25.83;;
75135;SDS011;63707;52.212;9.540;2023-03-20T04:52:46;71.22;;;24.92;;
75135;SDS011;63707;52.212;9.540;2023-03-20T04:55:12;76.78;;;26.10;;
75135;SDS011;63707;52.212;9.540;2023-03-20T04:57:38;78.85;;;25.73;;
75135;SDS011;63707;52.212;9.540;2023-03-20T05:00:03;78.50;;;26.80;;
75135;SDS011;63707;52.212;9.540;2023-03-20T05:02:29;76.85;;;25.70;;
75135;SDS011;63707;52.212;9.540;2023-03-20T05:04:56;76.20;;;26.42;;
75135;SDS011;63707;52.212;9.540;2023-03-20T05:07:22;82.40;;;26.77;;
75135;SDS011;63707;52.212;9.540;2023-03-20T05:09:47;78.97;;;26.00;;
75135;SDS011;63707;52.212;9.540;2023-03-20T05:12:13;75.97;;;26.52;;
75135;SDS011;63707;52.212;9.540;2023-03-20T05:14:38;73.88;;;25.98;;
75135;SDS011;63707;52.212;9.540;2023-03-20T05:17:04;72.35;;;24.63;;
75135;SDS011;63707;52.212;9.540;2023-03-20T05:19:30;80.65;;;25.55;;
75135;SDS011;63707;52.212;9.540;2023-03-20T05:21:56;73.55;;;24.75;;
75135;SDS011;63707;52.212;9.540;2023-03-20T05:24:22;74.47;;;26.35;;
75135;SDS011;63707;52.212;9.540;2023-03-20T05:26:47;76.53;;;25.23;;
75135;SDS011;63707;52.212;9.540;2023-03-20T05:29:13;78.13;;;25.38;;
75135;SDS011;63707;52.212;9.540;2023-03-20T05:31:39;78.70;;;26.05;;
75135;SDS011;63707;52.212;9.540;2023-03-20T05:34:04;80.65;;;26.17;;
75135;SDS011;63707;52.212;9.540;2023-03-20T05:36:30;76.43;;;24.50;;
75135;SDS011;63707;52.212;9.540;2023-03-20T05:38:57;75.45;;;26.27;;
75135;SDS011;63707;52.212;9.540;2023-03-20T05:41:22;83.18;;;25.77;;
75135;SDS011;63707;52.212;9.540;2023-03-20T05:43:48;75.10;;;24.88;;
75135;SDS011;63707;52.212;9.540;2023-03-20T05:46:13;81.40;;;24.63;;
75135;SDS011;63707;52.212;9.540;2023-03-20T05:48:39;78.70;;;26.60;;
75135;SDS011;63707;52.212;9.540;2023-03-20T05:51:05;69.28;;;22.90;;
75135;SDS011;63707;52.212;9.540;2023-03-20T05:53:30;73.57;;;25.70;;
75135;SDS011;63707;52.212;9.540;2023-03-20T05:55:57;71.13;;;24.88;;
75135;SDS011;63707;52.212;9.540;2023-03-20T05:58:23;71.28;;;24.10;;
75135;SDS011;63707;52.212;9.540;2023-03-20T06:00:48;71.90;;;24.48;;
75135;SDS011;63707;52.212;9.540;2023-03-20T06:03:14;73.85;;;25.45;;
75135;SDS011;63707;52.212;9.540;2023-03-20T06:05:40;75.57;;;25.58;;
75135;SDS011;63707;52.212;9.540;2023-03-20T06:08:06;75.18;;;25.88;;
75135;SDS011;63707;52.212;9.540;2023-03-20T06:10:31;73.30;;;25.23;;
75135;SDS011;63707;52.212;9.540;2023-03-20T06:12:58;71.57;;;23.73;;
75135;SDS011;63707;52.212;9.540;2023-03-20T06:15:25;70.78;;;24.05;;
75135;SDS011;63707;52.212;9.540;2023-03-20T06:17:50;66.43;;;23.00;;
75135;SDS011;63707;52.212;9.540;2023-03-20T06:20:16;70.57;;;24.17;;
75135;SDS011;63707;52.212;9.540;2023-03-20T06:22:41;72.15;;;24.65;;
75135;SDS011;63707;52.212;9.540;2023-03-20T06:25:07;66.97;;;22.38;;
75135;SDS011;63707;52.212;9.540;2023-03-20T06:27:33;65.53;;;24.52;;
75135;SDS011;63707;52.212;9.540;2023-03-20T06:30:00;61.30;;;22.67;;
75135;SDS011;63707;52.212;9.540;2023-03-20T06:32:26;73.70;;;26.00;;
75135;SDS011;63707;52.212;9.540;2023-03-20T06:34:51;64.53;;;21.33;;
75135;SDS011;63707;52.212;9.540;2023-03-20T06:37:18;59.33;;;22.08;;
75135;SDS011;63707;52.212;9.540;2023-03-20T06:39:43;60.72;;;23.55;;
75135;SDS011;63707;52.212;9.540;2023-03-20T06:42:09;57.28;;;22.08;;
75135;SDS011;63707;52.212;9.540;2023-03-20T06:44:37;60.95;;;23.10;;
75135;SDS011;63707;52.212;9.540;2023-03-20T06:47:03;59.78;;;23.02;;
75135;SDS011;63707;52.212;9.540;2023-03-20T06:49:29;51.75;;;20.45;;
75135;SDS011;63707;52.212;9.540;2023-03-20T06:51:55;51.47;;;20.67;;
75135;SDS011;63707;52.212;9.540;2023-03-20T06:54:21;50.85;;;20.83;;
75135;SDS011;63707;52.212;9.540;2023-03-20T06:56:46;44.03;;;19.05;;
75135;SDS011;63707;52.212;9.540;2023-03-20T06:59:12;47.50;;;19.83;;
75135;SDS011;63707;52.212;9.540;2023-03-20T07:01:38;49.63;;;19.25;;
75135;SDS011;63707;52.212;9.540;2023-03-20T07:04:05;44.75;;;18.40;;
75135;SDS011;63707;52.212;9.540;2023-03-20T07:06:30;42.15;;;18.58;;
75135;SDS011;63707;52.212;9.540;2023-03-20T07:08:56;37.30;;;15.63;;
75135;SDS011;63707;52.212;9.540;2023-03-20T07:11:22;38.33;;;15.77;;
75135;SDS011;63707;52.212;9.540;2023-03-20T07:13:47;38.83;;;17.08;;
75135;SDS011;63707;52.212;9.540;2023-03-20T07:16:13;37.90;;;16.63;;
75135;SDS011;63707;52.212;9.540;2023-03-20T07:18:38;40.90;;;17.13;;
75135;SDS011;63707;52.212;9.540;2023-03-20T07:21:05;36.58;;;15.45;;
75135;SDS011;63707;52.212;9.540;2023-03-20T07:23:32;40.83;;;17.38;;
75135;SDS011;63707;52.212;9.540;2023-03-20T07:26:01;35.10;;;15.50;;
75135;SDS011;63707;52.212;9.540;2023-03-20T07:28:29;37.17;;;15.70;;
75135;SDS011;63707;52.212;9.540;2023-03-20T07:30:55;35.38;;;15.95;;
75135;SDS011;63707;52.212;9.540;2023-03-20T07:33:21;35.47;;;17.00;;
75135;SDS011;63707;52.212;9.540;2023-03-20T07:35:50;36.95;;;15.75;;
75135;SDS011;63707;52.212;9.540;2023-03-20T07:38:18;33.88;;;15.48;;
75135;SDS011;63707;52.212;9.540;2023-03-20T07:40:43;36.53;;;15.13;;
75135;SDS011;63707;52.212;9.540;2023-03-20T07:43:09;30.73;;;14.77;;
75135;SDS011;63707;52.212;9.540;2023-03-20T07:45:34;30.67;;;14.38;;
75135;SDS011;63707;52.212;9.540;2023-03-20T07:48:00;34.13;;;14.10;;
75135;SDS011;63707;52.212;9.540;2023-03-20T07:50:25;31.77;;;14.38;;
75135;SDS011;63707;52.212;9.540;2023-03-20T07:52:51;29.70;;;14.13;;
75135;SDS011;63707;52.212;9.540;2023-03-20T07:55:18;30.60;;;14.48;;
75135;SDS011;63707;52.212;9.540;2023-03-20T07:57:43;31.08;;;13.02;;
75135;SDS011;63707;52.212;9.540;2023-03-20T08:00:09;27.50;;;13.25;;
75135;SDS011;63707;52.212;9.540;2023-03-20T08:02:35;29.33;;;13.32;;
75135;SDS011;63707;52.212;9.540;2023-03-20T08:05:01;29.08;;;13.80;;
75135;SDS011;63707;52.212;9.540;2023-03-20T08:07:28;28.90;;;13.75;;
75135;SDS011;63707;52.212;9.540;2023-03-20T08:09:53;28.98;;;14.55;;
75135;SDS011;63707;52.212;9.540;2023-03-20T08:12:20;28.23;;;13.45;;
75135;SDS011;63707;52.212;9.540;2023-03-20T08:14:46;31.13;;;14.77;;
75135;SDS011;63707;52.212;9.540;2023-03-20T08:17:11;27.27;;;13.70;;
75135;SDS011;63707;52.212;9.540;2023-03-20T08:19:37;30.38;;;13.75;;
75135;SDS011;63707;52.212;9.540;2023-03-20T08:22:02;27.30;;;13.02;;
75135;SDS011;63707;52.212;9.540;2023-03-20T08:24:28;28.23;;;13.35;;
75135;SDS011;63707;52.212;9.540;2023-03-20T08:26:54;29.42;;;14.02;;
75135;SDS011;63707;52.212;9.540;2023-03-20T08:29:21;27.08;;;13.02;;
75135;SDS011;63707;52.212;9.540;2023-03-20T08:31:46;29.55;;;13.85;;
75135;SDS011;63707;52.212;9.540;2023-03-20T08:34:12;26.77;;;13.40;;
75135;SDS011;63707;52.212;9.540;2023-03-20T08:36:37;25.85;;;12.45;;
75135;SDS011;63707;52.212;9.540;2023-03-20T08:39:06;24.98;;;12.73;;
75135;SDS011;63707;52.212;9.540;2023-03-20T08:41:32;23.63;;;11.02;;
75135;SDS011;63707;52.212;9.540;2023-03-20T08:43:58;29.75;;;13.10;;
75135;SDS011;63707;52.212;9.540;2023-03-20T08:46:24;28.55;;;13.30;;
75135;SDS011;63707;52.212;9.540;2023-03-20T08:48:50;26.48;;;12.85;;
75135;SDS011;63707;52.212;9.540;2023-03-20T08:51:15;37.10;;;13.43;;
75135;SDS011;63707;52.212;9.540;2023-03-20T08:53:41;28.98;;;14.00;;
75135;SDS011;63707;52.212;9.540;2023-03-20T08:56:07;34.20;;;14.80;;
75135;SDS011;63707;52.212;9.540;2023-03-20T08:58:33;31.55;;;15.55;;
75135;SDS011;63707;52.212;9.540;2023-03-20T09:01:02;30.17;;;14.73;;
75135;SDS011;63707;52.212;9.540;2023-03-20T09:03:30;33.72;;;16.50;;
75135;SDS011;63707;52.212;9.540;2023-03-20T09:05:55;40.33;;;15.60;;
75135;SDS011;63707;52.212;9.540;2023-03-20T09:08:21;31.83;;;15.85;;
75135;SDS011;63707;52.212;9.540;2023-03-20T09:10:47;34.40;;;16.95;;
75135;SDS011;63707;52.212;9.540;2023-03-20T09:13:13;35.22;;;17.45;;
75135;SDS011;63707;52.212;9.540;2023-03-20T09:15:38;34.83;;;16.85;;
75135;SDS011;63707;52.212;9.540;2023-03-20T09:18:04;32.30;;;16.35;;
75135;SDS011;63707;52.212;9.540;2023-03-20T09:20:31;37.95;;;19.08;;
75135;SDS011;63707;52.212;9.540;2023-03-20T09:22:57;41.17;;;20.30;;
75135;SDS011;63707;52.212;9.540;2023-03-20T09:25:22;36.28;;;18.33;;
75135;SDS011;63707;52.212;9.540;2023-03-20T09:27:49;35.10;;;18.50;;
75135;SDS011;63707;52.212;9.540;2023-03-20T09:30:16;42.08;;;20.25;;
75135;SDS011;63707;52.212;9.540;2023-03-20T09:32:41;37.30;;;18.63;;
75135;SDS011;63707;52.212;9.540;2023-03-20T09:35:07;36.75;;;19.40;;
75135;SDS011;63707;52.212;9.540;2023-03-20T09:37:35;39.42;;;18.25;;
75135;SDS011;63707;52.212;9.540;2023-03-20T09:40:00;40.65;;;19.92;;
75135;SDS011;63707;52.212;9.540;2023-03-20T09:42:29;43.80;;;21.50;;
75135;SDS011;63707;52.212;9.540;2023-03-20T09:45:03;44.85;;;21.92;;
75135;SDS011;63707;52.212;9.540;2023-03-20T09:47:37;35.17;;;17.10;;
75135;SDS011;63707;52.212;9.540;2023-03-20T09:50:20;41.40;;;20.75;;
75135;SDS011;63707;52.212;9.540;2023-03-20T09:52:55;38.95;;;19.63;;
75135;SDS011;63707;52.212;9.540;2023-03-20T09:55:28;40.45;;;20.10;;
75135;SDS011;63707;52.212;9.540;2023-03-20T09:57:57;36.47;;;20.02;;
75135;SDS011;63707;52.212;9.540;2023-03-20T10:00:30;38.53;;;19.25;;
75135;SDS011;63707;52.212;9.540;2023-03-20T10:02:59;37.97;;;20.35;;
75135;SDS011;63707;52.212;9.540;2023-03-20T10:05:26;38.90;;;20.42;;
75135;SDS011;63707;52.212;9.540;2023-03-20T10:07:55;38.25;;;19.85;;
75135;SDS011;63707;52.212;9.540;2023-03-20T10:10:25;36.40;;;19.90;;
75135;SDS011;63707;52.212;9.540;2023-03-20T10:12:58;40.33;;;19.85;;
75135;SDS011;63707;52.212;9.540;2023-03-20T10:15:37;33.33;;;18.23;;
75135;SDS011;63707;52.212;9.540;2023-03-20T10:18:13;34.80;;;18.33;;
75135;SDS011;63707;52.212;9.540;2023-03-20T10:20:47;33.47;;;18.58;;
75135;SDS011;63707;52.212;9.540;2023-03-20T10:23:22;33.03;;;18.03;;
75135;SDS011;63707;52.212;9.540;2023-03-20T10:25:55;32.35;;;16.80;;
75135;SDS011;63707;52.212;9.540;2023-03-20T10:28:28;31.30;;;17.65;;
75135;SDS011;63707;52.212;9.540;2023-03-20T10:31:00;35.03;;;18.50;;
75135;SDS011;63707;52.212;9.540;2023-03-20T10:33:43;32.80;;;17.70;;
75135;SDS011;63707;52.212;9.540;2023-03-20T10:36:19;33.35;;;19.33;;
75135;SDS011;63707;52.212;9.540;2023-03-20T10:39:02;36.83;;;18.80;;
75135;SDS011;63707;52.212;9.540;2023-03-20T10:41:34;34.47;;;19.45;;
75135;SDS011;63707;52.212;9.540;2023-03-20T10:44:02;31.90;;;18.88;;
75135;SDS011;63707;52.212;9.540;2023-03-20T10:46:29;33.13;;;17.23;;
75135;SDS011;63707;52.212;9.540;2023-03-20T10:48:57;26.27;;;16.77;;
75135;SDS011;63707;52.212;9.540;2023-03-20T10:51:37;26.67;;;16.30;;
75135;SDS011;63707;52.212;9.540;2023-03-20T10:54:09;25.48;;;14.18;;
75135;SDS011;63707;52.212;9.540;2023-03-20T10:56:45;20.15;;;12.90;;
75135;SDS011;63707;52.212;9.540;2023-03-20T10:59:15;20.05;;;12.63;;
75135;SDS011;63707;52.212;9.540;2023-03-20T11:01:44;20.63;;;11.77;;
75135;SDS011;63707;52.212;9.540;2023-03-20T11:04:10;18.60;;;11.00;;
75135;SDS011;63707;52.212;9.540;2023-03-20T11:06:37;18.80;;;11.05;;
75135;SDS011;63707;52.212;9.540;2023-03-20T11:09:14;16.50;;;10.88;;
75135;SDS011;63707;52.212;9.540;2023-03-20T11:11:44;17.15;;;10.77;;
75135;SDS011;63707;52.212;9.540;2023-03-20T11:14:15;18.83;;;11.02;;
75135;SDS011;63707;52.212;9.540;2023-03-20T11:16:42;17.20;;;10.70;;
75135;SDS011;63707;52.212;9.540;2023-03-20T11:19:12;22.23;;;11.00;;
75135;SDS011;63707;52.212;9.540;2023-03-20T11:21:44;17.00;;;9.45;;
75135;SDS011;63707;52.212;9.540;2023-03-20T11:24:20;15.05;;;9.80;;
75135;SDS011;63707;52.212;9.540;2023-03-20T11:26:49;15.15;;;9.38;;
75135;SDS011;63707;52.212;9.540;2023-03-20T11:29:17;14.30;;;9.40;;
75135;SDS011;63707;52.212;9.540;2023-03-20T11:31:48;14.88;;;9.60;;
75135;SDS011;63707;52.212;9.540;2023-03-20T11:34:21;13.95;;;8.85;;
75135;SDS011;63707;52.212;9.540;2023-03-20T11:36:54;13.80;;;9.15;;
75135;SDS011;63707;52.212;9.540;2023-03-20T11:39:22;13.50;;;9.50;;
75135;SDS011;63707;52.212;9.540;2023-03-20T11:41:51;15.27;;;9.60;;
75135;SDS011;63707;52.212;9.540;2023-03-20T11:44:24;14.88;;;10.38;;
75135;SDS011;63707;52.212;9.540;2023-03-20T11:46:54;16.35;;;9.52;;
75135;SDS011;63707;52.212;9.540;2023-03-20T11:49:21;14.50;;;10.35;;
75135;SDS011;63707;52.212;9.540;2023-03-20T11:51:55;16.65;;;11.05;;
75135;SDS011;63707;52.212;9.540;2023-03-20T11:54:24;15.00;;;11.20;;
75135;SDS011;63707;52.212;9.540;2023-03-20T11:56:52;15.95;;;11.45;;
75135;SDS011;63707;52.212;9.540;2023-03-20T11:59:19;16.15;;;11.13;;
75135;SDS011;63707;52.212;9.540;2023-03-20T12:01:46;15.38;;;11.73;;
75135;SDS011;63707;52.212;9.540;2023-03-20T12:04:15;15.85;;;11.80;;
75135;SDS011;63707;52.212;9.540;2023-03-20T12:06:46;17.48;;;13.20;;
75135;SDS011;63707;52.212;9.540;2023-03-20T12:09:22;18.05;;;12.38;;
75135;SDS011;63707;52.212;9.540;2023-03-20T12:11:56;18.50;;;14.10;;
75135;SDS011;63707;52.212;9.540;2023-03-20T12:14:26;16.05;;;12.88;;
75135;SDS011;63707;52.212;9.540;2023-03-20T12:17:02;17.08;;;12.93;;
75135;SDS011;63707;52.212;9.540;2023-03-20T12:19:37;19.77;;;14.18;;
75135;SDS011;63707;52.212;9.540;2023-03-20T12:22:07;22.55;;;13.95;;
75135;SDS011;63707;52.212;9.540;2023-03-20T12:24:44;21.02;;;14.23;;
75135;SDS011;63707;52.212;9.540;2023-03-20T12:27:19;19.35;;;14.40;;
75135;SDS011;63707;52.212;9.540;2023-03-20T12:29:49;20.95;;;14.68;;
75135;SDS011;63707;52.212;9.540;2023-03-20T12:32:20;26.88;;;14.73;;
75135;SDS011;63707;52.212;9.540;2023-03-20T12:34:52;21.25;;;14.60;;
75135;SDS011;63707;52.212;9.540;2023-03-20T12:37:23;21.52;;;13.95;;
75135;SDS011;63707;52.212;9.540;2023-03-20T12:39:50;22.27;;;13.80;;
75135;SDS011;63707;52.212;9.540;2023-03-20T12:42:21;20.40;;;14.75;;
75135;SDS011;63707;52.212;9.540;2023-03-20T12:44:58;19.40;;;13.07;;
75135;SDS011;63707;52.212;9.540;2023-03-20T12:47:32;20.45;;;14.43;;
75135;SDS011;63707;52.212;9.540;2023-03-20T12:50:29;17.45;;;12.95;;
75135;SDS011;63707;52.212;9.540;2023-03-20T12:53:00;18.52;;;13.10;;
75135;SDS011;63707;52.212;9.540;2023-03-20T12:55:48;18.15;;;12.27;;
75135;SDS011;63707;52.212;9.540;2023-03-20T12:58:24;17.88;;;12.68;;
75135;SDS011;63707;52.212;9.540;2023-03-20T13:00:59;17.58;;;11.35;;
75135;SDS011;63707;52.212;9.540;2023-03-20T13:03:32;16.15;;;11.70;;
75135;SDS011;63707;52.212;9.540;2023-03-20T13:06:22;18.98;;;11.13;;
75135;SDS011;63707;52.212;9.540;2023-03-20T13:09:17;15.70;;;10.40;;
75135;SDS011;63707;52.212;9.540;2023-03-20T13:12:04;14.93;;;10.25;;
75135;SDS011;63707;52.212;9.540;2023-03-20T13:14:40;15.48;;;10.73;;
75135;SDS011;63707;52.212;9.540;2023-03-20T13:17:13;17.50;;;10.90;;
75135;SDS011;63707;52.212;9.540;2023-03-20T13:19:48;17.73;;;11.02;;
75135;SDS011;63707;52.212;9.540;2023-03-20T13:22:28;19.25;;;11.35;;
75135;SDS011;63707;52.212;9.540;2023-03-20T13:25:02;20.20;;;12.10;;
75135;SDS011;63707;52.212;9.540;2023-03-20T13:27:52;16.73;;;11.73;;
75135;SDS011;63707;52.212;9.540;2023-03-20T13:30:25;17.30;;;12.13;;
75135;SDS011;63707;52.212;9.540;2023-03-20T13:33:00;17.93;;;11.70;;
75135;SDS011;63707;52.212;9.540;2023-03-20T13:35:35;17.15;;;11.10;;
75135;SDS011;63707;52.212;9.540;2023-03-20T13:40:37;16.98;;;11.25;;
75135;SDS011;63707;52.212;9.540;2023-03-20T13:43:09;15.65;;;11.25;;
75135;SDS011;63707;52.212;9.540;2023-03-20T13:45:43;15.68;;;11.82;;
75135;SDS011;63707;52.212;9.540;2023-03-20T13:48:15;15.55;;;11.93;;
75135;SDS011;63707;52.212;9.540;2023-03-20T13:50:48;20.85;;;12.65;;
75135;SDS011;63707;52.212;9.540;2023-03-20T13:53:22;18.42;;;12.82;;
75135;SDS011;63707;52.212;9.540;2023-03-20T13:55:54;19.05;;;12.30;;
75135;SDS011;63707;52.212;9.540;2023-03-20T13:58:38;18.80;;;12.85;;
75135;SDS011;63707;52.212;9.540;2023-03-20T14:01:15;20.15;;;13.57;;
75135;SDS011;63707;52.212;9.540;2023-03-20T14:03:47;18.92;;;12.90;;
75135;SDS011;63707;52.212;9.540;2023-03-20T14:06:17;18.25;;;13.02;;
75135;SDS011;63707;52.212;9.540;2023-03-20T14:09:04;19.90;;;13.27;;
75135;SDS011;63707;52.212;9.540;2023-03-20T14:11:49;25.27;;;15.45;;
75135;SDS011;63707;52.212;9.540;2023-03-20T14:14:18;24.52;;;14.95;;
75135;SDS011;63707;52.212;9.540;2023-03-20T14:16:58;22.42;;;14.20;;
75135;SDS011;63707;52.212;9.540;2023-03-20T14:19:38;20.98;;;14.30;;
75135;SDS011;63707;52.212;9.540;2023-03-20T14:22:03;21.42;;;14.73;;
75135;SDS011;63707;52.212;9.540;2023-03-20T14:24:33;20.35;;;15.00;;
75135;SDS011;63707;52.212;9.540;2023-03-20T14:27:01;29.63;;;16.13;;
75135;SDS011;63707;52.212;9.540;2023-03-20T14:29:31;22.67;;;14.18;;
75135;SDS011;63707;52.212;9.540;2023-03-20T14:32:01;21.15;;;15.07;;
75135;SDS011;63707;52.212;9.540;2023-03-20T14:34:43;21.85;;;13.35;;
75135;SDS011;63707;52.212;9.540;2023-03-20T14:37:24;20.75;;;14.32;;
75135;SDS011;63707;52.212;9.540;2023-03-20T14:39:56;21.00;;;13.93;;
75135;SDS011;63707;52.212;9.540;2023-03-20T14:42:31;19.17;;;13.60;;
75135;SDS011;63707;52.212;9.540;2023-03-20T14:45:15;17.65;;;12.85;;
75135;SDS011;63707;52.212;9.540;2023-03-20T14:47:52;17.38;;;12.02;;
75135;SDS011;63707;52.212;9.540;2023-03-20T14:50:24;19.38;;;12.30;;